createdAt,value
2019-03-08T00:03:13.122Z,56.30
2019-03-08T00:05:41.361Z,55.25
2019-03-08T00:08:09.568Z,55.46
2019-03-08T00:10:37.773Z,55.97
2019-03-08T00:13:05.983Z,56.49
2019-03-08T00:15:34.341Z,55.98
2019-03-08T00:18:02.534Z,56.69
2019-03-08T00:20:30.697Z,57.51
2019-03-08T00:22:58.973Z,57.50
2019-03-08T00:25:27.173Z,57.38
2019-03-08T00:27:55.315Z,57.59
2019-03-08T00:30:23.571Z,57.70
2019-03-08T00:32:51.738Z,58.66
2019-03-08T00:35:19.897Z,59.08
2019-03-08T00:37:48.027Z,59.50
2019-03-08T00:40:16.387Z,60.18
2019-03-08T00:42:44.641Z,59.91
2019-03-08T00:45:12.897Z,58.89
2019-03-08T00:47:41.059Z,59.50
2019-03-08T00:50:09.452Z,59.29
2019-03-08T00:52:37.560Z,59.78
2019-03-08T00:55:06.266Z,59.75
2019-03-08T00:57:34.406Z,59.81
2019-03-08T01:00:02.621Z,59.62
2019-03-08T01:02:31.021Z,59.17
2019-03-08T01:04:59.141Z,59.58
2019-03-08T01:07:27.320Z,59.46
2019-03-08T01:09:55.512Z,60.21
2019-03-08T01:12:23.604Z,62.01
2019-03-08T01:14:51.917Z,61.78
2019-03-08T01:17:20.344Z,63.21
2019-03-08T01:19:48.944Z,63.84
2019-03-08T01:22:17.077Z,63.56
2019-03-08T01:24:45.167Z,63.72
2019-03-08T01:27:13.449Z,62.69
2019-03-08T01:29:41.921Z,64.07
2019-03-08T01:32:10.387Z,63.01
2019-03-08T01:34:38.487Z,64.47
2019-03-08T01:37:06.849Z,64.86
2019-03-08T01:39:35.101Z,65.42
2019-03-08T01:42:03.290Z,64.64
2019-03-08T01:44:31.495Z,64.79
2019-03-08T01:46:59.847Z,65.07
2019-03-08T01:49:28.013Z,64.24
2019-03-08T01:51:56.227Z,62.88
2019-03-08T01:54:24.319Z,62.77
2019-03-08T01:56:52.467Z,63.85
2019-03-08T01:59:20.615Z,63.70
2019-03-08T02:01:49.019Z,63.44
2019-03-08T02:04:17.624Z,62.62
2019-03-08T02:06:45.881Z,62.87
2019-03-08T02:09:18.303Z,62.99
2019-03-08T02:11:46.450Z,62.68
2019-03-08T02:14:14.684Z,64.10
2019-03-08T02:16:43.078Z,64.44
2019-03-08T02:19:11.264Z,63.48
2019-03-08T02:21:39.400Z,62.89
2019-03-08T02:24:07.710Z,62.90
2019-03-08T02:26:35.934Z,63.21
2019-03-08T02:29:04.042Z,63.38
2019-03-08T02:31:32.805Z,63.30
2019-03-08T02:34:03.877Z,63.71
2019-03-08T02:36:31.986Z,62.94
2019-03-08T02:39:01.456Z,64.62
2019-03-08T02:41:30.106Z,63.43
2019-03-08T02:43:58.238Z,65.24
2019-03-08T02:46:26.501Z,63.98
2019-03-08T02:48:54.653Z,68.28
2019-03-08T02:51:22.861Z,64.34
2019-03-08T02:53:51.140Z,64.79
2019-03-08T02:56:19.496Z,68.58
2019-03-08T02:58:47.629Z,69.39
2019-03-08T03:01:15.843Z,68.97
2019-03-08T03:03:44.018Z,66.67
2019-03-08T03:06:12.187Z,68.64
2019-03-08T03:08:40.340Z,66.64
2019-03-08T03:11:08.628Z,72.14
2019-03-08T03:13:36.882Z,70.54
2019-03-08T03:16:05.265Z,69.29
2019-03-08T03:18:33.392Z,70.66
2019-03-08T03:21:01.518Z,69.69
2019-03-08T03:23:30.084Z,70.70
2019-03-08T03:25:58.284Z,73.39
2019-03-08T03:28:26.450Z,72.89
2019-03-08T03:30:55.849Z,73.20
2019-03-08T03:33:24.109Z,71.83
2019-03-08T03:35:52.232Z,69.35
2019-03-08T03:38:20.539Z,73.94
2019-03-08T03:40:48.708Z,73.79
2019-03-08T03:43:16.858Z,75.27
2019-03-08T03:45:45.345Z,75.33
2019-03-08T03:48:13.614Z,73.92
2019-03-08T03:50:41.719Z,75.04
2019-03-08T03:53:09.978Z,74.16
2019-03-08T03:55:38.267Z,74.68
2019-03-08T03:58:06.493Z,71.53
2019-03-08T04:00:34.799Z,71.79
2019-03-08T04:03:03.055Z,71.85
2019-03-08T04:05:31.183Z,72.35
2019-03-08T04:07:59.293Z,72.00
2019-03-08T04:10:27.419Z,72.04
2019-03-08T04:12:55.733Z,75.13
2019-03-08T04:15:24.039Z,73.36
2019-03-08T04:17:52.326Z,71.68
2019-03-08T04:20:29.594Z,75.14
2019-03-08T04:22:57.939Z,72.99
2019-03-08T04:25:26.152Z,73.22
2019-03-08T04:27:54.303Z,71.23
2019-03-08T04:30:22.668Z,72.17
2019-03-08T04:32:50.946Z,71.30
2019-03-08T04:35:19.286Z,72.73
2019-03-08T04:37:47.592Z,71.19
2019-03-08T04:40:15.992Z,71.00
2019-03-08T04:42:44.334Z,72.28
2019-03-08T04:45:13.068Z,72.83
2019-03-08T04:47:41.212Z,71.04
2019-03-08T04:50:10.336Z,68.43
2019-03-08T04:52:38.540Z,70.17
2019-03-08T04:55:08.298Z,70.59
2019-03-08T04:57:36.449Z,71.00
2019-03-08T05:00:05.530Z,69.50
2019-03-08T05:02:33.771Z,71.39
2019-03-08T05:05:02.029Z,69.65
2019-03-08T05:07:30.325Z,68.90
2019-03-08T05:09:58.649Z,68.94
2019-03-08T05:12:26.873Z,70.20
2019-03-08T05:17:42.608Z,69.68
2019-03-08T05:20:11.053Z,69.97
2019-03-08T05:22:39.205Z,69.80
2019-03-08T05:25:07.559Z,70.57
2019-03-08T05:27:35.807Z,71.04
2019-03-08T05:30:04.611Z,69.74
2019-03-08T05:32:32.800Z,70.21
2019-03-08T05:35:01.180Z,70.23
2019-03-08T05:37:29.603Z,69.95
2019-03-08T05:39:57.869Z,69.70
2019-03-08T05:42:26.152Z,70.15
2019-03-08T05:44:54.322Z,70.05
2019-03-08T05:47:22.583Z,69.50
2019-03-08T05:49:50.808Z,69.53
2019-03-08T05:52:18.920Z,69.85
2019-03-08T05:54:47.336Z,69.96
2019-03-08T05:57:15.868Z,68.56
2019-03-08T05:59:45.548Z,70.31
2019-03-08T06:02:14.233Z,70.20
2019-03-08T06:04:42.648Z,70.48
2019-03-08T06:07:11.074Z,70.63
2019-03-08T06:09:39.210Z,70.61
2019-03-08T06:12:07.598Z,69.68
2019-03-08T06:14:35.751Z,71.93
2019-03-08T06:17:03.955Z,72.27
2019-03-08T06:19:32.469Z,69.96
2019-03-08T06:22:00.931Z,71.23
2019-03-08T06:24:29.038Z,69.89
2019-03-08T06:26:57.172Z,70.59
2019-03-08T06:29:25.535Z,70.51
2019-03-08T06:31:53.663Z,69.30
2019-03-08T06:34:21.917Z,70.54
2019-03-08T06:36:50.268Z,68.45
2019-03-08T06:39:18.615Z,69.51
2019-03-08T06:41:46.787Z,69.42
2019-03-08T06:44:15.009Z,69.47
2019-03-08T06:46:43.197Z,68.85
2019-03-08T06:49:11.414Z,67.73
2019-03-08T06:51:39.633Z,68.89
2019-03-08T06:54:07.741Z,69.68
2019-03-08T06:56:36.081Z,68.39
2019-03-08T06:59:23.236Z,69.34
2019-03-08T07:01:51.485Z,69.94
2019-03-08T07:04:19.969Z,70.01
2019-03-08T07:06:48.248Z,68.78
2019-03-08T07:09:17.005Z,70.84
2019-03-08T07:11:45.286Z,69.86
2019-03-08T07:14:13.414Z,70.93
2019-03-08T07:16:41.518Z,71.20
2019-03-08T07:19:09.790Z,72.80
2019-03-08T07:21:42.421Z,72.65
2019-03-08T07:24:29.551Z,74.08
2019-03-08T07:27:16.741Z,75.37
2019-03-08T07:30:16.028Z,74.80
2019-03-08T07:33:06.502Z,75.27
2019-03-08T07:35:53.733Z,75.08
2019-03-08T07:38:41.417Z,75.85
2019-03-08T07:41:25.501Z,74.55
2019-03-08T07:44:06.511Z,76.31
2019-03-08T07:46:59.723Z,75.70
2019-03-08T07:49:48.253Z,75.87
2019-03-08T07:52:22.581Z,76.64
2019-03-08T07:55:09.816Z,75.82
2019-03-08T07:57:45.324Z,74.06
2019-03-08T08:00:36.407Z,75.92
2019-03-08T08:03:11.371Z,76.00
2019-03-08T08:05:58.644Z,75.15
2019-03-08T08:08:51.521Z,75.23
2019-03-08T08:11:28.560Z,76.97
2019-03-08T08:14:21.585Z,76.44
2019-03-08T08:17:08.711Z,75.17
2019-03-08T08:19:56.225Z,74.99
2019-03-08T08:22:43.318Z,77.02
2019-03-08T08:25:42.740Z,75.92
2019-03-08T08:28:38.820Z,75.00
2019-03-08T08:31:29.069Z,76.57
2019-03-08T08:34:16.266Z,75.62
2019-03-08T08:37:02.062Z,76.49
2019-03-08T08:39:50.256Z,74.32
2019-03-08T08:42:37.158Z,71.68
2019-03-08T08:45:30.188Z,75.15
2019-03-08T08:48:05.862Z,75.33
2019-03-08T08:50:44.549Z,76.32
2019-03-08T08:53:31.766Z,75.50
2019-03-08T08:56:17.599Z,75.83
2019-03-08T08:59:04.961Z,74.87
2019-03-08T09:01:50.987Z,73.16
2019-03-08T09:04:38.369Z,73.05
2019-03-08T09:07:34.145Z,73.55
2019-03-08T09:10:30.365Z,74.14
2019-03-08T09:13:17.677Z,76.21
2019-03-08T09:16:10.849Z,75.04
2019-03-08T09:19:13.409Z,75.14
2019-03-08T09:22:00.577Z,76.62
2019-03-08T09:24:47.726Z,73.12
2019-03-08T09:27:34.908Z,75.34
2019-03-08T09:30:34.316Z,72.95
2019-03-08T09:33:20.140Z,75.34
2019-03-08T09:36:07.586Z,74.35
2019-03-08T09:38:50.668Z,72.88
2019-03-08T09:41:31.014Z,75.43
2019-03-08T09:44:10.526Z,73.63
2019-03-08T09:46:56.466Z,73.51
2019-03-08T09:49:43.610Z,74.84
2019-03-08T09:52:16.468Z,74.17
2019-03-08T09:55:03.789Z,73.06
2019-03-08T09:57:52.199Z,71.68
2019-03-08T10:00:38.268Z,72.60
2019-03-08T10:03:25.386Z,73.12
2019-03-08T10:06:12.574Z,73.57
2019-03-08T10:09:11.783Z,71.16
2019-03-08T10:11:58.961Z,71.86
2019-03-08T10:14:46.440Z,70.91
2019-03-08T10:17:21.132Z,70.36
2019-03-08T10:19:58.608Z,71.20
2019-03-08T10:22:44.823Z,69.09
2019-03-08T10:25:37.777Z,69.53
2019-03-08T10:28:39.975Z,67.76
2019-03-08T10:31:27.043Z,68.87
2019-03-08T10:34:08.043Z,68.41
2019-03-08T10:37:04.245Z,67.99
2019-03-08T10:39:51.448Z,66.52
2019-03-08T10:42:37.415Z,67.29
2019-03-08T10:45:16.538Z,65.83
2019-03-08T10:47:56.352Z,66.24
2019-03-08T10:50:43.557Z,66.31
2019-03-08T10:53:18.327Z,66.11
2019-03-08T10:56:00.481Z,65.25
2019-03-08T10:58:47.976Z,62.93
2019-03-08T11:01:35.114Z,62.50
2019-03-08T11:04:10.801Z,65.12
2019-03-08T11:06:58.817Z,63.47
2019-03-08T11:09:44.397Z,61.43
2019-03-08T11:12:28.364Z,62.16
2019-03-08T11:15:24.207Z,60.84
2019-03-08T11:17:52.479Z,64.54
2019-03-08T11:20:43.792Z,61.92
2019-03-08T11:23:29.569Z,58.75
2019-03-08T11:26:20.191Z,64.39
2019-03-08T11:29:05.235Z,62.81
2019-03-08T11:31:52.536Z,62.15
2019-03-08T11:34:30.182Z,58.06
2019-03-08T11:37:17.480Z,62.23
2019-03-08T11:40:04.618Z,65.27
2019-03-08T11:42:51.779Z,61.11
2019-03-08T11:45:33.807Z,63.19
2019-03-08T11:48:24.025Z,68.24
2019-03-08T11:51:11.151Z,72.20
2019-03-08T11:53:56.685Z,67.84
2019-03-08T11:56:43.761Z,70.86
2019-03-08T11:59:30.843Z,69.04
2019-03-08T12:02:10.406Z,70.09
2019-03-08T12:05:15.814Z,70.40
2019-03-08T12:08:03.189Z,66.16
2019-03-08T12:10:44.310Z,67.26
2019-03-08T12:13:28.788Z,64.80
2019-03-08T12:16:19.401Z,65.38
2019-03-08T12:19:04.607Z,62.91
2019-03-08T12:21:51.740Z,64.40
2019-03-08T12:24:38.904Z,64.66
2019-03-08T12:27:20.250Z,63.24
2019-03-08T12:30:22.315Z,63.02
2019-03-08T12:33:08.178Z,59.53
2019-03-08T12:36:13.656Z,58.03
2019-03-08T12:38:49.028Z,65.20
2019-03-08T12:41:33.857Z,56.97
2019-03-08T12:44:20.949Z,59.21
2019-03-08T12:47:08.073Z,58.18
2019-03-08T12:49:52.345Z,63.56
2019-03-08T12:52:36.012Z,54.48
2019-03-08T12:55:22.162Z,57.78
2019-03-08T12:58:09.461Z,55.48
2019-03-08T13:00:45.977Z,60.81
2019-03-08T13:03:48.481Z,57.56
2019-03-08T13:06:35.727Z,65.32
2019-03-08T13:09:15.212Z,62.65
2019-03-08T13:11:43.470Z,62.57
2019-03-08T13:14:11.815Z,63.46
2019-03-08T13:16:40.155Z,61.36
2019-03-08T13:19:08.609Z,60.02
2019-03-08T13:21:36.899Z,65.90
2019-03-08T13:24:05.403Z,58.52
2019-03-08T13:26:33.888Z,59.20
2019-03-08T13:29:20.994Z,59.50
2019-03-08T13:31:49.178Z,59.54
2019-03-08T13:34:17.382Z,53.79
2019-03-08T13:36:45.666Z,61.81
2019-03-08T13:39:14.173Z,56.58
2019-03-08T13:41:42.578Z,62.30
2019-03-08T13:44:10.750Z,63.73
2019-03-08T13:46:38.885Z,64.94
2019-03-08T13:49:07.473Z,61.88
2019-03-08T13:51:36.132Z,62.75
2019-03-08T13:54:04.578Z,59.91
2019-03-08T13:56:33.255Z,59.06
2019-03-08T14:01:36.604Z,54.69
2019-03-08T14:04:04.888Z,54.03
2019-03-08T14:06:33.363Z,58.58
2019-03-08T14:09:04.792Z,52.78
2019-03-08T14:11:33.215Z,58.39
2019-03-08T14:16:50.274Z,55.20
2019-03-08T14:19:18.454Z,57.25
2019-03-08T14:21:46.715Z,54.47
2019-03-08T14:24:14.947Z,62.11
2019-03-08T14:26:43.421Z,59.57
2019-03-08T14:29:11.693Z,57.49
2019-03-08T14:31:53.082Z,54.86
2019-03-08T14:34:21.357Z,58.15
2019-03-08T14:36:49.699Z,56.20
2019-03-08T14:39:17.896Z,49.81
2019-03-08T14:42:05.385Z,48.46
2019-03-08T14:44:56.037Z,58.10
2019-03-08T14:47:33.245Z,50.07
2019-03-08T14:50:00.297Z,51.25
2019-03-08T14:52:29.068Z,58.89
2019-03-08T14:54:57.277Z,53.93
2019-03-08T14:57:27.322Z,54.06
2019-03-08T14:59:55.746Z,52.79
2019-03-08T15:02:24.047Z,58.44
2019-03-08T15:04:52.387Z,54.27
2019-03-08T15:07:20.723Z,57.32
2019-03-08T15:09:49.144Z,58.40
2019-03-08T15:12:17.544Z,61.16
2019-03-08T15:14:45.858Z,55.82
2019-03-08T15:17:16.805Z,57.37
2019-03-08T15:19:44.101Z,61.83
2019-03-08T15:22:12.393Z,60.21
2019-03-08T15:24:40.639Z,59.59
2019-03-08T15:27:08.918Z,59.53
2019-03-08T15:29:37.621Z,61.18
2019-03-08T15:32:06.047Z,60.64
2019-03-08T15:34:34.279Z,59.86
2019-03-08T15:37:02.593Z,61.96
2019-03-08T15:39:30.773Z,60.70
2019-03-08T15:42:02.387Z,58.71
2019-03-08T15:44:29.248Z,59.43
2019-03-08T15:46:59.201Z,60.78
2019-03-08T15:49:30.547Z,61.90
2019-03-08T15:51:59.912Z,64.16
2019-03-08T15:54:27.849Z,61.70
2019-03-08T15:56:56.172Z,62.79
2019-03-08T15:59:24.348Z,61.83
2019-03-08T16:01:52.939Z,61.63
2019-03-08T16:04:21.386Z,63.41
2019-03-08T16:06:49.566Z,59.93
2019-03-08T16:09:17.951Z,59.96
2019-03-08T16:11:46.281Z,60.34
2019-03-08T16:14:14.673Z,62.80
2019-03-08T16:16:42.942Z,62.59
2019-03-08T16:19:11.143Z,58.96
2019-03-08T16:21:39.915Z,59.67
2019-03-08T16:24:08.279Z,61.45
2019-03-08T16:26:36.652Z,59.80
2019-03-08T16:29:11.959Z,61.52
2019-03-08T16:32:00.038Z,57.10
2019-03-08T16:34:28.590Z,58.33
2019-03-08T16:37:09.337Z,62.01
2019-03-08T16:39:59.093Z,56.44
2019-03-08T16:42:46.156Z,60.75
2019-03-08T16:45:40.810Z,60.06
2019-03-08T16:48:40.369Z,62.30
2019-03-08T16:51:39.589Z,56.71
2019-03-08T16:54:24.667Z,58.38
2019-03-08T16:57:19.091Z,57.78
2019-03-08T17:00:06.434Z,61.25
2019-03-08T17:02:53.791Z,58.38
2019-03-08T17:05:41.312Z,60.68
2019-03-08T17:08:46.875Z,58.63
2019-03-08T17:11:34.556Z,62.25
2019-03-08T17:14:22.713Z,60.97
2019-03-08T17:17:12.819Z,60.95
2019-03-08T17:19:53.598Z,59.75
2019-03-08T17:22:38.178Z,58.82
2019-03-08T17:25:29.106Z,58.58
2019-03-08T17:28:11.640Z,60.63
2019-03-08T17:30:59.102Z,58.88
2019-03-08T17:33:48.622Z,60.32
2019-03-08T17:36:42.805Z,60.15
2019-03-08T17:39:19.380Z,60.10
2019-03-08T17:41:55.367Z,60.02
2019-03-08T17:44:43.036Z,59.85
2019-03-08T17:47:30.928Z,60.27
2019-03-08T17:50:30.792Z,60.02
2019-03-08T17:53:18.490Z,60.37
2019-03-08T17:56:13.297Z,60.48
2019-03-08T17:59:01.026Z,60.63
2019-03-08T18:01:44.988Z,60.34
2019-03-08T18:04:32.743Z,60.40
2019-03-08T18:07:20.222Z,60.58
2019-03-08T18:10:14.187Z,60.89
2019-03-08T18:13:02.225Z,61.13
2019-03-08T18:15:59.468Z,61.16
2019-03-08T18:18:47.257Z,60.64
2019-03-08T18:21:34.691Z,61.00
2019-03-08T18:24:37.965Z,65.31
2019-03-08T18:27:28.949Z,61.66
2019-03-08T18:30:29.065Z,65.40
2019-03-08T18:33:11.316Z,61.07
2019-03-08T18:35:59.063Z,60.72
2019-03-08T18:38:55.539Z,60.55
2019-03-08T18:41:33.995Z,66.35
2019-03-08T18:44:21.278Z,67.09
2019-03-08T18:47:12.427Z,63.76
2019-03-08T18:49:51.262Z,61.71
2019-03-08T18:52:45.636Z,62.82
2019-03-08T18:55:32.013Z,67.83
2019-03-08T18:58:32.599Z,63.17
2019-03-08T19:01:19.794Z,66.32
2019-03-08T19:04:05.117Z,63.49
2019-03-08T19:06:55.621Z,61.92
2019-03-08T19:09:32.944Z,60.84
2019-03-08T19:12:31.104Z,63.23
2019-03-08T19:15:27.879Z,62.80
2019-03-08T19:18:15.908Z,68.83
2019-03-08T19:21:03.263Z,66.38
2019-03-08T19:23:40.323Z,69.46
2019-03-08T19:26:43.208Z,70.14
2019-03-08T19:29:21.192Z,67.60
2019-03-08T19:32:00.320Z,62.13
2019-03-08T19:34:47.929Z,66.97
2019-03-08T19:37:27.191Z,69.15
2019-03-08T19:40:15.212Z,69.92
2019-03-08T19:43:03.336Z,66.56
2019-03-08T19:45:57.169Z,68.09
2019-03-08T19:49:02.311Z,69.13
2019-03-08T19:51:56.889Z,62.82
2019-03-08T19:54:41.486Z,66.48
2019-03-08T19:57:29.877Z,67.48
2019-03-08T20:00:30.188Z,63.48
2019-03-08T20:03:08.094Z,67.62
2019-03-08T20:05:59.923Z,68.03
2019-03-08T20:08:40.724Z,68.42
2019-03-08T20:11:38.122Z,67.15
2019-03-08T20:14:35.420Z,69.31
2019-03-08T20:17:22.729Z,68.53
2019-03-08T20:20:17.964Z,69.57
2019-03-08T20:23:00.280Z,67.48
2019-03-08T20:26:04.359Z,67.21
2019-03-08T20:28:47.825Z,64.80
2019-03-08T20:31:35.769Z,65.89
2019-03-08T20:34:21.725Z,61.45
2019-03-08T20:37:09.777Z,60.32
2019-03-08T20:40:00.605Z,67.26
2019-03-08T20:42:48.851Z,68.04
2019-03-08T20:45:23.957Z,66.65
2019-03-08T20:47:53.445Z,61.35
2019-03-08T20:50:24.023Z,62.52
2019-03-08T20:52:53.578Z,63.26
2019-03-08T20:55:22.192Z,65.92
2019-03-08T20:57:52.261Z,64.60
2019-03-08T21:00:22.780Z,63.32
2019-03-08T21:02:52.315Z,64.78
2019-03-08T21:05:22.030Z,64.50
2019-03-08T21:07:51.795Z,64.56
2019-03-08T21:10:21.266Z,60.36
2019-03-08T21:12:50.840Z,60.48
2019-03-08T21:17:56.363Z,60.96
2019-03-08T21:20:45.618Z,64.07
2019-03-08T21:23:16.673Z,64.68
2019-03-08T21:25:46.035Z,65.90
2019-03-08T21:28:15.696Z,64.65
2019-03-08T21:30:44.945Z,65.40
2019-03-08T21:33:14.567Z,64.37
2019-03-08T21:35:44.150Z,63.91
2019-03-08T21:38:13.415Z,62.12
2019-03-08T21:40:42.873Z,64.43
2019-03-08T21:43:14.386Z,63.64
2019-03-08T21:45:44.559Z,61.26
2019-03-08T21:48:13.674Z,65.02
2019-03-08T21:50:43.059Z,63.60
2019-03-08T21:53:11.886Z,61.31
2019-03-08T21:55:41.233Z,64.64
2019-03-08T21:58:10.468Z,63.40
2019-03-08T22:00:39.282Z,64.28
2019-03-08T22:03:08.111Z,64.81
2019-03-08T22:05:38.317Z,65.20
2019-03-08T22:08:16.450Z,62.62
2019-03-08T22:10:52.207Z,61.16
2019-03-08T22:13:21.163Z,65.79
2019-03-08T22:15:49.624Z,64.15
2019-03-08T22:18:18.412Z,65.35
2019-03-08T22:20:47.192Z,63.44
2019-03-08T22:23:15.635Z,63.93
2019-03-08T22:25:44.021Z,66.13
2019-03-08T22:28:12.878Z,62.52
2019-03-08T22:30:41.842Z,66.35
2019-03-08T22:33:10.583Z,65.59
2019-03-08T22:35:39.223Z,63.65
2019-03-08T22:38:07.599Z,65.68
2019-03-08T22:40:36.005Z,63.63
2019-03-08T22:43:04.285Z,64.97
2019-03-08T22:45:32.578Z,63.25
2019-03-08T22:48:00.945Z,64.38
2019-03-08T22:50:29.332Z,65.77
2019-03-08T22:52:57.644Z,66.30
2019-03-08T22:55:25.968Z,65.98
2019-03-08T22:57:54.210Z,61.92
2019-03-08T23:01:01.215Z,63.25
2019-03-08T23:03:29.903Z,66.26
2019-03-08T23:05:58.063Z,62.91
2019-03-08T23:08:26.225Z,62.26
2019-03-08T23:10:54.342Z,66.26
2019-03-08T23:13:22.695Z,65.72
2019-03-08T23:15:50.871Z,65.92
2019-03-08T23:18:19.276Z,63.45
2019-03-08T23:20:47.520Z,65.24
2019-03-08T23:23:15.997Z,66.14
2019-03-08T23:25:44.230Z,66.19
2019-03-08T23:28:43.594Z,62.51
2019-03-08T23:31:28.505Z,66.18
2019-03-08T23:33:56.721Z,63.28
2019-03-08T23:36:25.006Z,62.39
2019-03-08T23:38:53.325Z,63.53
2019-03-08T23:41:21.745Z,64.58
2019-03-08T23:43:49.927Z,63.37
2019-03-08T23:46:18.183Z,63.31
2019-03-08T23:48:46.321Z,65.96
2019-03-08T23:51:14.554Z,62.60
2019-03-08T23:53:42.950Z,62.92
2019-03-08T23:56:11.531Z,63.75
2019-03-08T23:58:39.679Z,62.48
